createdAt,value
2023-05-17T00:02:01.535Z,17.76
2023-05-17T00:04:28.739Z,17.76
2023-05-17T00:06:55.606Z,17.76
2023-05-17T00:09:22.355Z,17.74
2023-05-17T00:11:49.147Z,17.67
2023-05-17T00:14:16.230Z,17.69
2023-05-17T00:16:43.108Z,17.69
2023-05-17T00:19:10.192Z,17.68
2023-05-17T00:21:37.318Z,17.65
2023-05-17T00:24:04.387Z,17.66
2023-05-17T00:26:31.753Z,17.64
2023-05-17T00:28:58.525Z,17.60
2023-05-17T00:31:25.352Z,17.53
2023-05-17T00:33:52.190Z,17.48
2023-05-17T00:36:19.023Z,17.48
2023-05-17T00:38:45.826Z,17.49
2023-05-17T00:41:13.202Z,17.39
2023-05-17T00:43:40.212Z,17.32
2023-05-17T00:46:07.088Z,17.36
2023-05-17T00:48:34.103Z,17.38
2023-05-17T00:51:01.219Z,17.30
2023-05-17T00:53:29.077Z,17.27
2023-05-17T00:55:56.112Z,17.13
2023-05-17T00:58:24.192Z,17.11
2023-05-17T01:00:52.299Z,17.11
2023-05-17T01:03:19.249Z,17.02
2023-05-17T01:05:46.074Z,16.87
2023-05-17T01:08:12.850Z,16.84
2023-05-17T01:10:46.511Z,16.77
2023-05-17T01:13:23.014Z,16.54
2023-05-17T01:16:01.225Z,16.49
2023-05-17T01:18:46.992Z,16.46
2023-05-17T01:21:37.429Z,16.27
2023-05-17T01:24:44.418Z,16.19
2023-05-17T01:27:14.715Z,16.23
2023-05-17T01:29:44.877Z,16.15
2023-05-17T01:32:13.810Z,16.20
2023-05-17T01:34:41.817Z,16.22
2023-05-17T01:37:08.600Z,16.26
2023-05-17T01:39:36.444Z,16.24
2023-05-17T01:42:16.396Z,16.30
2023-05-17T01:44:52.219Z,16.40
2023-05-17T01:47:36.078Z,16.39
2023-05-17T01:50:05.230Z,16.43
2023-05-17T01:52:34.783Z,16.32
2023-05-17T01:55:10.697Z,16.26
2023-05-17T01:57:41.271Z,16.21
2023-05-17T02:00:09.635Z,16.07
2023-05-17T02:02:42.372Z,16.04
2023-05-17T02:05:09.602Z,15.98
2023-05-17T02:07:39.909Z,15.97
2023-05-17T02:10:07.227Z,15.98
2023-05-17T02:12:34.054Z,15.92
2023-05-17T02:15:01.442Z,15.89
2023-05-17T02:17:28.508Z,16.03
2023-05-17T02:19:55.305Z,15.77
2023-05-17T02:22:22.071Z,15.85
2023-05-17T02:24:49.151Z,15.96
2023-05-17T02:27:16.110Z,16.02
2023-05-17T02:29:43.127Z,16.03
2023-05-17T02:32:09.881Z,16.10
2023-05-17T02:34:36.756Z,16.11
2023-05-17T02:37:03.630Z,16.14
2023-05-17T02:39:32.240Z,16.00
2023-05-17T02:41:59.210Z,15.88
2023-05-17T02:44:27.392Z,15.71
2023-05-17T02:46:54.245Z,15.61
2023-05-17T02:49:21.099Z,15.45
2023-05-17T02:51:47.858Z,15.37
2023-05-17T02:54:14.762Z,15.15
2023-05-17T02:56:41.731Z,15.07
2023-05-17T02:59:08.767Z,15.12
2023-05-17T03:01:36.808Z,15.08
2023-05-17T03:04:04.651Z,14.97
2023-05-17T03:06:31.684Z,14.91
2023-05-17T03:08:58.707Z,14.77
2023-05-17T03:11:26.008Z,14.78
2023-05-17T03:13:54.835Z,14.79
2023-05-17T03:16:26.617Z,14.81
2023-05-17T03:18:53.601Z,14.76
2023-05-17T03:21:20.559Z,14.70
2023-05-17T03:23:50.028Z,14.63
2023-05-17T03:26:19.746Z,14.62
2023-05-17T03:28:49.836Z,14.58
2023-05-17T03:31:19.012Z,14.47
2023-05-17T03:33:46.277Z,14.62
2023-05-17T03:36:13.981Z,14.62
2023-05-17T03:38:40.811Z,14.58
2023-05-17T03:41:07.813Z,14.47
2023-05-17T03:43:34.793Z,14.42
2023-05-17T03:46:01.899Z,14.47
2023-05-17T03:48:30.359Z,14.57
2023-05-17T03:50:57.593Z,14.69
2023-05-17T03:53:24.397Z,14.78
2023-05-17T03:55:51.264Z,14.69
2023-05-17T03:58:18.469Z,14.72
2023-05-17T04:00:45.484Z,14.70
2023-05-17T04:03:17.427Z,14.70
2023-05-17T04:05:46.683Z,14.71
2023-05-17T04:08:13.875Z,14.71
2023-05-17T04:10:42.228Z,14.79
2023-05-17T04:13:09.833Z,14.71
2023-05-17T04:15:38.203Z,14.80
2023-05-17T04:18:06.399Z,14.87
2023-05-17T04:20:33.318Z,14.90
2023-05-17T04:23:00.308Z,14.96
2023-05-17T04:25:29.943Z,14.91
2023-05-17T04:27:57.053Z,14.84
2023-05-17T04:30:24.280Z,14.70
2023-05-17T04:32:51.136Z,14.60
2023-05-17T04:35:17.905Z,14.57
2023-05-17T04:37:47.955Z,14.43
2023-05-17T04:40:20.691Z,14.44
2023-05-17T04:42:48.764Z,14.44
2023-05-17T04:45:17.770Z,14.46
2023-05-17T04:47:44.914Z,14.43
2023-05-17T04:50:12.588Z,14.40
2023-05-17T04:52:39.918Z,14.48
2023-05-17T04:55:08.106Z,14.43
2023-05-17T04:57:36.122Z,14.39
2023-05-17T05:00:14.158Z,14.39
2023-05-17T05:02:42.759Z,14.45
2023-05-17T05:05:11.347Z,14.48
2023-05-17T05:07:40.117Z,14.50
2023-05-17T05:10:08.884Z,14.56
2023-05-17T05:12:36.425Z,14.54
2023-05-17T05:15:03.296Z,14.57
2023-05-17T05:17:31.320Z,14.52
2023-05-17T05:19:58.392Z,14.59
2023-05-17T05:22:26.309Z,14.70
2023-05-17T05:24:53.847Z,14.64
2023-05-17T05:27:20.773Z,14.62
2023-05-17T05:29:47.839Z,14.68
2023-05-17T05:32:16.223Z,14.72
2023-05-17T05:34:45.908Z,14.60
2023-05-17T05:37:14.431Z,14.63
2023-05-17T05:39:42.402Z,14.72
2023-05-17T05:42:09.362Z,14.71
2023-05-17T05:44:36.773Z,14.77
2023-05-17T05:47:04.046Z,14.82
2023-05-17T05:49:31.035Z,14.89
2023-05-17T05:51:58.106Z,14.94
2023-05-17T05:54:27.569Z,14.89
2023-05-17T05:56:55.266Z,14.84
2023-05-17T05:59:22.266Z,14.89
2023-05-17T06:01:49.141Z,14.89
2023-05-17T06:04:16.003Z,15.00
2023-05-17T06:06:42.923Z,15.06
2023-05-17T06:09:12.341Z,15.22
2023-05-17T06:11:39.898Z,15.17
2023-05-17T06:14:06.847Z,15.37
2023-05-17T06:16:33.991Z,15.31
2023-05-17T06:19:01.159Z,15.39
2023-05-17T06:21:28.106Z,15.47
2023-05-17T06:23:55.344Z,15.52
2023-05-17T06:26:22.103Z,15.57
2023-05-17T06:28:48.941Z,15.71
2023-05-17T06:31:16.922Z,15.74
2023-05-17T06:33:44.218Z,15.76
2023-05-17T06:36:11.072Z,15.86
2023-05-17T06:38:37.862Z,15.90
2023-05-17T06:41:04.661Z,16.00
2023-05-17T06:43:31.539Z,16.03
2023-05-17T06:45:58.334Z,15.98
2023-05-17T06:48:25.464Z,16.08
2023-05-17T06:50:52.372Z,16.21
2023-05-17T06:53:19.204Z,16.25
2023-05-17T06:55:46.076Z,16.43
2023-05-17T06:58:12.958Z,16.51
2023-05-17T07:00:39.817Z,16.55
2023-05-17T07:03:06.769Z,16.67
2023-05-17T07:05:34.072Z,16.49
2023-05-17T07:08:01.291Z,16.65
2023-05-17T07:10:28.109Z,16.78
2023-05-17T07:12:54.948Z,16.86
2023-05-17T07:15:21.802Z,16.88
2023-05-17T07:17:48.643Z,17.02
2023-05-17T07:20:15.518Z,17.23
2023-05-17T07:22:42.463Z,17.38
2023-05-17T07:25:10.238Z,17.48
2023-05-17T07:27:37.202Z,17.53
2023-05-17T07:30:04.586Z,17.46
2023-05-17T07:32:31.428Z,17.62
2023-05-17T07:34:58.338Z,17.61
2023-05-17T07:37:25.463Z,17.76
2023-05-17T07:39:54.794Z,17.86
2023-05-17T07:42:21.588Z,17.90
2023-05-17T07:44:51.889Z,18.06
2023-05-17T07:47:19.033Z,18.26
2023-05-17T07:49:45.932Z,18.20
2023-05-17T07:52:12.834Z,18.35
2023-05-17T07:54:39.585Z,18.54
2023-05-17T07:57:06.305Z,18.47
2023-05-17T07:59:33.347Z,18.38
2023-05-17T08:02:00.293Z,18.57
2023-05-17T08:04:27.066Z,18.57
2023-05-17T08:06:55.406Z,18.63
2023-05-17T08:09:22.210Z,18.58
2023-05-17T08:11:49.116Z,18.69
2023-05-17T08:14:16.594Z,18.71
2023-05-17T08:16:45.258Z,18.89
2023-05-17T08:19:13.488Z,19.06
2023-05-17T08:21:41.994Z,19.19
2023-05-17T08:24:09.540Z,19.39
2023-05-17T08:26:36.492Z,19.51
2023-05-17T08:29:04.778Z,19.56
2023-05-17T08:31:32.705Z,19.54
2023-05-17T08:33:59.813Z,19.74
2023-05-17T08:36:26.984Z,19.87
2023-05-17T08:38:53.961Z,19.76
2023-05-17T08:41:20.961Z,19.98
2023-05-17T08:43:49.619Z,19.92
2023-05-17T08:46:21.678Z,20.05
2023-05-17T08:48:53.348Z,20.00
2023-05-17T08:51:21.910Z,20.23
2023-05-17T08:53:50.571Z,20.14
2023-05-17T08:56:21.586Z,20.35
2023-05-17T08:58:56.874Z,20.45
2023-05-17T09:01:26.738Z,20.70
2023-05-17T09:03:54.521Z,20.96
2023-05-17T09:06:22.859Z,21.00
2023-05-17T09:08:58.541Z,21.18
2023-05-17T09:11:27.941Z,21.39
2023-05-17T09:13:59.110Z,21.52
2023-05-17T09:16:28.484Z,21.73
2023-05-17T09:18:56.814Z,21.82
2023-05-17T09:21:25.133Z,21.72
2023-05-17T09:24:04.679Z,21.91
2023-05-17T09:26:46.230Z,21.87
2023-05-17T09:29:16.002Z,21.96
2023-05-17T09:31:44.330Z,21.89
2023-05-17T09:34:11.585Z,21.97
2023-05-17T09:36:42.901Z,21.99
2023-05-17T09:39:13.473Z,22.09
2023-05-17T09:41:51.142Z,22.07
2023-05-17T09:44:18.032Z,22.19
2023-05-17T09:46:50.184Z,22.30
2023-05-17T09:49:18.263Z,22.41
2023-05-17T09:51:47.720Z,22.37
2023-05-17T09:54:14.865Z,22.39
2023-05-17T09:56:42.067Z,22.49
2023-05-17T09:59:16.774Z,22.48
2023-05-17T10:01:45.812Z,22.53
2023-05-17T10:04:14.497Z,22.65
2023-05-17T10:06:49.847Z,22.69
2023-05-17T10:09:21.753Z,22.86
2023-05-17T10:11:51.151Z,22.88
2023-05-17T10:14:23.618Z,22.86
2023-05-17T10:16:51.884Z,22.84
2023-05-17T10:19:21.191Z,22.79
2023-05-17T10:21:50.862Z,22.77
2023-05-17T10:24:17.928Z,22.73
2023-05-17T10:26:45.564Z,22.65
2023-05-17T10:29:12.578Z,22.71
2023-05-17T10:31:43.654Z,22.71
2023-05-17T10:34:18.449Z,22.62
2023-05-17T10:36:46.492Z,22.67
2023-05-17T10:39:13.552Z,22.63
2023-05-17T10:41:45.859Z,22.57
2023-05-17T10:44:16.130Z,22.62
2023-05-17T10:46:55.431Z,22.70
2023-05-17T10:49:33.362Z,22.67
2023-05-17T10:52:12.702Z,22.65
2023-05-17T10:54:42.728Z,22.69
2023-05-17T10:57:20.193Z,22.71
2023-05-17T11:00:03.060Z,22.64
2023-05-17T11:02:31.494Z,22.68
2023-05-17T11:05:00.582Z,22.74
2023-05-17T11:07:33.803Z,22.81
2023-05-17T11:10:03.148Z,22.77
2023-05-17T11:12:33.871Z,22.73
2023-05-17T11:15:08.173Z,22.87
2023-05-17T11:17:54.826Z,22.97
2023-05-17T11:20:28.303Z,22.99
2023-05-17T11:23:17.423Z,23.02
2023-05-17T11:25:45.769Z,23.05
2023-05-17T11:28:20.123Z,22.99
2023-05-17T11:30:53.934Z,22.84
2023-05-17T11:33:38.508Z,22.94
2023-05-17T11:36:13.495Z,22.85
2023-05-17T11:38:40.346Z,22.86
2023-05-17T11:43:49.819Z,22.86
2023-05-17T11:46:21.825Z,22.86
2023-05-17T11:48:53.973Z,22.77
2023-05-17T11:51:24.610Z,22.70
2023-05-17T11:53:55.601Z,22.72
2023-05-17T11:56:35.637Z,22.60
2023-05-17T11:59:10.331Z,22.65
2023-05-17T12:01:46.162Z,22.65
2023-05-17T12:04:13.727Z,22.54
2023-05-17T12:06:41.106Z,22.67
2023-05-17T12:09:11.116Z,22.64
2023-05-17T12:11:39.611Z,22.67
2023-05-17T12:14:07.327Z,22.75
2023-05-17T12:16:36.630Z,22.78
2023-05-17T12:19:03.767Z,22.72
2023-05-17T12:21:30.960Z,22.83
2023-05-17T12:23:57.802Z,22.81
2023-05-17T12:26:24.923Z,22.95
2023-05-17T12:28:56.349Z,22.80
2023-05-17T12:31:35.680Z,22.73
2023-05-17T12:34:06.062Z,22.80
2023-05-17T12:36:34.188Z,22.84
2023-05-17T12:39:02.216Z,22.83
2023-05-17T12:41:30.164Z,22.93
2023-05-17T12:44:13.689Z,22.74
2023-05-17T12:46:42.982Z,22.84
2023-05-17T12:49:11.925Z,22.73
2023-05-17T12:51:46.058Z,22.66
2023-05-17T12:54:16.280Z,22.79
2023-05-17T12:56:46.764Z,22.59
2023-05-17T12:59:14.819Z,22.63
2023-05-17T13:01:52.160Z,22.72
2023-05-17T13:04:21.167Z,22.56
2023-05-17T13:06:51.711Z,22.42
2023-05-17T13:09:20.778Z,22.28
2023-05-17T13:11:59.391Z,22.19
2023-05-17T13:14:45.810Z,22.19
2023-05-17T13:17:25.574Z,22.11
2023-05-17T13:19:53.108Z,22.30
2023-05-17T13:22:19.995Z,22.40
2023-05-17T13:24:46.793Z,22.17
2023-05-17T13:27:13.841Z,22.22
2023-05-17T13:29:42.844Z,22.30
2023-05-17T13:32:12.441Z,22.15
2023-05-17T13:34:40.563Z,22.27
2023-05-17T13:37:10.300Z,22.26
2023-05-17T13:39:38.720Z,22.22
2023-05-17T13:42:05.769Z,22.31
2023-05-17T13:44:32.983Z,22.34
2023-05-17T13:47:00.006Z,22.28
2023-05-17T13:49:28.311Z,22.43
2023-05-17T13:51:55.109Z,22.22
2023-05-17T13:54:23.275Z,22.22
2023-05-17T13:56:50.127Z,22.08
2023-05-17T13:59:16.954Z,22.40
2023-05-17T14:01:43.921Z,22.17
2023-05-17T14:04:10.973Z,22.25
2023-05-17T14:06:39.136Z,22.11
2023-05-17T14:09:06.446Z,22.24
2023-05-17T14:11:34.387Z,22.18
2023-05-17T14:14:01.399Z,22.39
2023-05-17T14:16:28.351Z,22.52
2023-05-17T14:18:55.897Z,22.49
2023-05-17T14:21:22.844Z,22.61
2023-05-17T14:23:49.731Z,22.67
2023-05-17T14:26:16.581Z,22.69
2023-05-17T14:28:43.392Z,22.77
2023-05-17T14:31:10.764Z,22.75
2023-05-17T14:33:37.776Z,22.79
2023-05-17T14:36:04.938Z,22.64
2023-05-17T14:38:31.840Z,22.67
2023-05-17T14:41:00.898Z,22.72
2023-05-17T14:43:28.762Z,22.69
2023-05-17T14:45:55.750Z,22.71
2023-05-17T14:48:22.916Z,22.69
2023-05-17T14:50:49.900Z,22.73
2023-05-17T14:53:16.724Z,22.76
2023-05-17T14:55:43.775Z,22.62
2023-05-17T14:58:13.574Z,22.77
2023-05-17T15:00:41.914Z,22.74
2023-05-17T15:03:09.237Z,22.88
2023-05-17T15:05:37.813Z,23.01
2023-05-17T15:08:04.890Z,23.09
2023-05-17T15:10:32.135Z,23.21
2023-05-17T15:12:58.997Z,23.07
2023-05-17T15:15:25.861Z,23.07
2023-05-17T15:17:53.013Z,23.15
2023-05-17T15:20:20.479Z,23.15
2023-05-17T15:22:48.491Z,23.02
2023-05-17T15:25:16.138Z,23.09
2023-05-17T15:27:42.927Z,23.02
2023-05-17T15:30:12.509Z,23.16
2023-05-17T15:32:40.224Z,23.00
2023-05-17T15:35:07.847Z,23.37
2023-05-17T15:37:34.713Z,23.41
2023-05-17T15:40:09.820Z,23.43
2023-05-17T15:42:37.315Z,23.48
2023-05-17T15:45:04.657Z,23.64
2023-05-17T15:47:42.418Z,23.64
2023-05-17T15:50:10.766Z,23.66
2023-05-17T15:52:37.575Z,23.71
2023-05-17T15:55:04.755Z,23.29
2023-05-17T15:57:31.559Z,23.52
2023-05-17T15:59:58.318Z,23.42
2023-05-17T16:02:25.986Z,23.43
2023-05-17T16:04:52.805Z,23.32
2023-05-17T16:07:19.600Z,23.17
2023-05-17T16:09:46.442Z,23.42
2023-05-17T16:12:13.435Z,23.16
2023-05-17T16:14:40.830Z,22.81
2023-05-17T16:17:07.744Z,23.16
2023-05-17T16:19:34.787Z,22.98
2023-05-17T16:22:02.590Z,22.78
2023-05-17T16:24:29.557Z,22.51
2023-05-17T16:26:56.756Z,22.59
2023-05-17T16:29:23.580Z,22.38
2023-05-17T16:31:51.592Z,22.29
2023-05-17T16:34:18.651Z,22.18
2023-05-17T16:36:47.860Z,22.47
2023-05-17T16:39:14.644Z,22.45
2023-05-17T16:41:41.665Z,22.70
2023-05-17T16:44:08.575Z,22.91
2023-05-17T16:46:37.543Z,23.15
2023-05-17T16:49:04.788Z,22.90
2023-05-17T16:51:31.848Z,22.71
2023-05-17T16:53:58.731Z,22.39
2023-05-17T16:56:25.656Z,22.42
2023-05-17T16:58:52.431Z,22.19
2023-05-17T17:01:19.333Z,22.32
2023-05-17T17:03:46.340Z,22.19
2023-05-17T17:06:13.234Z,22.32
2023-05-17T17:08:40.083Z,22.18
2023-05-17T17:11:06.928Z,22.11
2023-05-17T17:13:34.076Z,22.15
2023-05-17T17:16:01.370Z,21.97
2023-05-17T17:18:29.191Z,22.14
2023-05-17T17:20:57.303Z,22.06
2023-05-17T17:23:24.154Z,22.10
2023-05-17T17:25:51.142Z,21.96
2023-05-17T17:28:17.922Z,21.83
2023-05-17T17:30:44.780Z,21.76
2023-05-17T17:33:11.711Z,21.76
2023-05-17T17:35:38.851Z,21.86
2023-05-17T17:38:05.944Z,21.63
2023-05-17T17:40:33.083Z,21.57
2023-05-17T17:43:00.082Z,21.55
2023-05-17T17:45:26.897Z,21.41
2023-05-17T17:47:53.889Z,21.43
2023-05-17T17:50:20.898Z,21.27
2023-05-17T17:52:48.169Z,21.38
2023-05-17T17:55:15.443Z,21.06
2023-05-17T17:57:42.169Z,21.15
2023-05-17T18:00:11.837Z,21.20
2023-05-17T18:02:39.942Z,21.19
2023-05-17T18:05:07.240Z,21.23
2023-05-17T18:07:34.131Z,21.12
2023-05-17T18:10:01.989Z,21.02
2023-05-17T18:12:28.958Z,20.72
2023-05-17T18:14:56.016Z,20.83
2023-05-17T18:17:23.149Z,20.78
2023-05-17T18:19:50.225Z,20.80
2023-05-17T18:22:17.115Z,20.73
2023-05-17T18:24:44.053Z,20.71
2023-05-17T18:27:13.119Z,20.56
2023-05-17T18:29:41.264Z,20.55
2023-05-17T18:32:09.156Z,20.49
2023-05-17T18:34:36.340Z,20.47
2023-05-17T18:37:03.463Z,20.46
2023-05-17T18:39:30.751Z,20.52
2023-05-17T18:41:57.546Z,20.54
2023-05-17T18:44:24.371Z,20.55
2023-05-17T18:46:51.479Z,20.55
2023-05-17T18:49:18.312Z,20.53
2023-05-17T18:51:45.396Z,20.54
2023-05-17T18:54:12.313Z,20.28
2023-05-17T18:56:39.258Z,20.39
2023-05-17T18:59:06.190Z,20.34
2023-05-17T19:01:33.332Z,20.34
2023-05-17T19:04:00.297Z,20.40
2023-05-17T19:06:31.731Z,20.39
2023-05-17T19:08:59.028Z,20.37
2023-05-17T19:11:28.616Z,20.39
2023-05-17T19:13:56.004Z,20.38
2023-05-17T19:16:22.876Z,20.36
2023-05-17T19:18:50.237Z,20.34
2023-05-17T19:21:17.405Z,20.35
2023-05-17T19:23:44.780Z,20.33
2023-05-17T19:26:11.878Z,20.38
2023-05-17T19:28:39.987Z,20.35
2023-05-17T19:31:08.316Z,20.30
2023-05-17T19:33:37.615Z,20.32
2023-05-17T19:36:04.705Z,20.32
2023-05-17T19:38:33.321Z,20.30
2023-05-17T19:41:01.526Z,20.28
2023-05-17T19:43:28.641Z,20.28
2023-05-17T19:45:55.904Z,20.28
2023-05-17T19:48:24.301Z,20.23
2023-05-17T19:50:51.542Z,20.25
2023-05-17T19:53:18.477Z,20.25
2023-05-17T19:55:45.506Z,20.22
2023-05-17T19:58:12.368Z,20.25
2023-05-17T20:00:39.300Z,20.22
2023-05-17T20:03:06.231Z,20.19
2023-05-17T20:05:33.237Z,20.19
2023-05-17T20:08:02.763Z,20.20
2023-05-17T20:10:32.598Z,20.18
2023-05-17T20:12:59.853Z,20.18
2023-05-17T20:15:26.722Z,20.12
2023-05-17T20:17:53.689Z,20.13
2023-05-17T20:20:20.835Z,20.13
2023-05-17T20:22:48.183Z,20.12
2023-05-17T20:25:15.063Z,20.11
2023-05-17T20:27:41.901Z,20.11
2023-05-17T20:30:09.377Z,20.09
2023-05-17T20:32:36.257Z,20.07
2023-05-17T20:35:03.167Z,20.08
2023-05-17T20:37:29.974Z,20.06
2023-05-17T20:39:59.883Z,20.05
2023-05-17T20:42:28.220Z,20.04
2023-05-17T20:44:55.638Z,20.04
2023-05-17T20:47:22.867Z,20.04
2023-05-17T20:49:50.449Z,20.05
2023-05-17T20:52:31.263Z,20.03
2023-05-17T20:55:05.083Z,20.00
2023-05-17T20:57:32.054Z,19.99
2023-05-17T20:59:58.937Z,19.98
2023-05-17T21:02:25.922Z,20.00
2023-05-17T21:04:54.556Z,20.00
2023-05-17T21:07:26.394Z,19.98
2023-05-17T21:09:53.254Z,19.94
2023-05-17T21:12:21.383Z,19.97
2023-05-17T21:14:59.848Z,19.94
2023-05-17T21:17:35.014Z,19.95
2023-05-17T21:20:01.967Z,19.90
2023-05-17T21:22:28.740Z,19.81
2023-05-17T21:24:55.629Z,19.78
2023-05-17T21:27:22.404Z,19.79
2023-05-17T21:29:49.200Z,19.70
2023-05-17T21:32:17.181Z,19.74
2023-05-17T21:34:44.938Z,19.66
2023-05-17T21:37:12.000Z,19.56
2023-05-17T21:39:38.749Z,19.57
2023-05-17T21:42:05.942Z,19.57
2023-05-17T21:44:32.868Z,19.60
2023-05-17T21:46:59.961Z,19.57
2023-05-17T21:49:28.507Z,19.57
2023-05-17T21:51:55.438Z,19.45
2023-05-17T21:54:24.486Z,19.42
2023-05-17T21:56:51.612Z,19.43
2023-05-17T21:59:18.586Z,19.46
2023-05-17T22:01:45.897Z,19.39
2023-05-17T22:04:12.908Z,19.32
2023-05-17T22:06:39.722Z,18.90
2023-05-17T22:09:07.234Z,18.89
2023-05-17T22:11:38.325Z,18.67
2023-05-17T22:14:08.392Z,18.59
2023-05-17T22:16:36.252Z,18.44
2023-05-17T22:19:05.482Z,18.50
2023-05-17T22:21:33.049Z,18.42
2023-05-17T22:23:59.989Z,18.40
2023-05-17T22:26:27.736Z,18.24
2023-05-17T22:28:55.745Z,18.19
2023-05-17T22:31:22.943Z,18.23
2023-05-17T22:33:52.061Z,18.18
2023-05-17T22:36:19.544Z,18.20
2023-05-17T22:38:46.736Z,18.22
2023-05-17T22:41:13.832Z,18.37
2023-05-17T22:43:40.703Z,18.41
2023-05-17T22:46:07.627Z,18.47
2023-05-17T22:48:37.365Z,18.35
2023-05-17T22:51:04.585Z,18.36
2023-05-17T22:53:31.664Z,18.30
2023-05-17T22:55:58.788Z,18.14
2023-05-17T22:58:25.928Z,18.20
2023-05-17T23:00:53.175Z,18.08
2023-05-17T23:03:20.479Z,18.03
2023-05-17T23:05:47.512Z,17.97
2023-05-17T23:08:17.846Z,17.94
2023-05-17T23:10:44.859Z,17.99
2023-05-17T23:13:12.510Z,18.09
2023-05-17T23:15:40.902Z,18.17
2023-05-17T23:18:08.210Z,18.23
2023-05-17T23:20:35.214Z,18.20
2023-05-17T23:23:02.163Z,18.28
2023-05-17T23:25:29.708Z,18.31
2023-05-17T23:27:59.460Z,18.34
2023-05-17T23:30:26.449Z,18.28
2023-05-17T23:32:55.248Z,18.39
2023-05-17T23:35:23.865Z,18.41
2023-05-17T23:37:50.748Z,18.46
2023-05-17T23:40:17.612Z,18.41
2023-05-17T23:42:44.560Z,18.34
2023-05-17T23:45:11.441Z,18.31
2023-05-17T23:47:40.802Z,18.30
2023-05-17T23:50:11.944Z,18.30
2023-05-17T23:52:39.215Z,18.33
2023-05-17T23:55:09.225Z,18.33
2023-05-17T23:57:36.169Z,18.26
